FOX8800 MROC-MNMG
Flight info
| Callsign | FOX8800 |
|---|---|
| Flight time | 0h 38m |
| Altitude | 22000 |
| Route | NANJO4U ULAPO UA502 LISPA |
| Aircraft | B738/M-SDE2E3FGHIRWXY/LB1 |
Departure
| Time | 2026-05-06 22:40 |
|---|---|
| Airport | Juan Santamaría International Airport (MROC) |
Arrival
| Time | 2026-05-06 23:18 |
|---|---|
| Airport | Augusto C. Sandino (Managua) International Airport (MNMG) |
| Time | Latitude | Longitude | Altitude | Speed | Heading |
|---|---|---|---|---|---|
| 2026-05-06 22:40 | 9.98681 | -84.24607 | 4866 ft | 197 kts | 281° |
| 2026-05-06 22:40 | 9.99118 | -84.25900 | 6003 ft | 191 kts | 300° |
| 2026-05-06 22:41 | 10.01038 | -84.27848 | 7850 ft | 203 kts | 324° |
| 2026-05-06 22:41 | 10.02154 | -84.28719 | 8813 ft | 202 kts | 325° |
| 2026-05-06 22:41 | 10.03253 | -84.29657 | 9577 ft | 213 kts | 317° |
| 2026-05-06 22:42 | 10.04317 | -84.30789 | 10115 ft | 231 kts | 314° |
| 2026-05-06 22:42 | 10.05489 | -84.32075 | 10341 ft | 264 kts | 314° |
| 2026-05-06 22:42 | 10.06931 | -84.33324 | 10737 ft | 279 kts | 329° |
| 2026-05-06 22:42 | 10.08590 | -84.34396 | 11250 ft | 286 kts | 329° |
| 2026-05-06 22:43 | 10.10294 | -84.35507 | 11527 ft | 308 kts | 329° |
| 2026-05-06 22:43 | 10.12168 | -84.36727 | 11708 ft | 333 kts | 329° |
| 2026-05-06 22:43 | 10.14186 | -84.38047 | 11849 ft | 356 kts | 327° |
| 2026-05-06 22:43 | 10.16223 | -84.39597 | 12107 ft | 376 kts | 323° |
| 2026-05-06 22:44 | 10.18284 | -84.41308 | 12555 ft | 386 kts | 322° |
| 2026-05-06 22:44 | 10.20374 | -84.43057 | 12937 ft | 389 kts | 323° |
| 2026-05-06 22:44 | 10.22467 | -84.44783 | 12946 ft | 387 kts | 323° |
| 2026-05-06 22:44 | 10.24573 | -84.46491 | 12950 ft | 388 kts | 324° |
| 2026-05-06 22:45 | 10.26700 | -84.48194 | 12946 ft | 389 kts | 324° |
| 2026-05-06 22:45 | 10.28842 | -84.49901 | 12946 ft | 389 kts | 324° |
| 2026-05-06 22:45 | 10.30974 | -84.51598 | 12948 ft | 390 kts | 324° |
| 2026-05-06 22:45 | 10.33104 | -84.53293 | 12939 ft | 390 kts | 324° |
| 2026-05-06 22:46 | 10.35244 | -84.54997 | 12990 ft | 393 kts | 324° |
| 2026-05-06 22:46 | 10.37381 | -84.56696 | 13581 ft | 396 kts | 324° |
| 2026-05-06 22:46 | 10.39552 | -84.58425 | 14239 ft | 397 kts | 324° |
| 2026-05-06 22:46 | 10.41726 | -84.60157 | 14876 ft | 398 kts | 324° |
| 2026-05-06 22:47 | 10.43913 | -84.61899 | 15468 ft | 401 kts | 324° |
| 2026-05-06 22:47 | 10.46116 | -84.63654 | 16044 ft | 404 kts | 324° |
| 2026-05-06 22:47 | 10.48334 | -84.65422 | 16607 ft | 406 kts | 324° |
| 2026-05-06 22:47 | 10.50567 | -84.67203 | 17164 ft | 409 kts | 325° |
| 2026-05-06 22:48 | 10.52086 | -84.68414 | 17541 ft | 411 kts | 325° |
| 2026-05-06 22:48 | 10.55084 | -84.70805 | 18261 ft | 414 kts | 325° |
| 2026-05-06 22:48 | 10.56588 | -84.72005 | 18573 ft | 416 kts | 325° |
| 2026-05-06 22:48 | 10.58878 | -84.73833 | 19011 ft | 419 kts | 324° |
| 2026-05-06 22:49 | 10.61177 | -84.75669 | 19439 ft | 422 kts | 325° |
| 2026-05-06 22:49 | 10.63500 | -84.77523 | 19852 ft | 426 kts | 325° |
| 2026-05-06 22:49 | 10.65840 | -84.79391 | 20282 ft | 428 kts | 325° |
| 2026-05-06 22:49 | 10.68184 | -84.81273 | 20684 ft | 432 kts | 323° |
| 2026-05-06 22:50 | 10.70450 | -84.83314 | 21141 ft | 434 kts | 320° |
| 2026-05-06 22:50 | 10.72596 | -84.85436 | 21749 ft | 428 kts | 319° |
| 2026-05-06 22:50 | 10.74699 | -84.87571 | 21921 ft | 428 kts | 318° |
| 2026-05-06 22:50 | 10.76837 | -84.89736 | 21918 ft | 439 kts | 318° |
| 2026-05-06 22:51 | 10.79021 | -84.91926 | 21928 ft | 447 kts | 319° |
| 2026-05-06 22:51 | 10.81219 | -84.94110 | 21920 ft | 448 kts | 319° |
| 2026-05-06 22:51 | 10.83448 | -84.96312 | 21898 ft | 444 kts | 319° |
| 2026-05-06 22:51 | 10.85652 | -84.98480 | 21902 ft | 441 kts | 319° |
| 2026-05-06 22:52 | 10.87754 | -85.00545 | 21909 ft | 439 kts | 319° |
| 2026-05-06 22:52 | 10.89959 | -85.02709 | 21912 ft | 439 kts | 319° |
| 2026-05-06 22:52 | 10.92159 | -85.04868 | 21917 ft | 440 kts | 319° |
| 2026-05-06 22:52 | 10.94368 | -85.07038 | 21918 ft | 442 kts | 319° |
| 2026-05-06 22:53 | 10.96590 | -85.09222 | 21916 ft | 445 kts | 319° |
| 2026-05-06 22:53 | 10.98821 | -85.11416 | 21908 ft | 447 kts | 319° |
| 2026-05-06 22:53 | 11.01055 | -85.13614 | 21905 ft | 448 kts | 319° |
| 2026-05-06 22:53 | 11.03295 | -85.15818 | 21901 ft | 449 kts | 319° |
| 2026-05-06 22:54 | 11.05541 | -85.18024 | 21899 ft | 449 kts | 319° |
| 2026-05-06 22:54 | 11.07794 | -85.20188 | 21901 ft | 448 kts | 320° |
| 2026-05-06 22:54 | 11.10076 | -85.22348 | 21901 ft | 448 kts | 320° |
| 2026-05-06 22:54 | 11.12359 | -85.24499 | 21899 ft | 447 kts | 320° |
| 2026-05-06 22:55 | 11.14610 | -85.26623 | 21896 ft | 446 kts | 320° |
| 2026-05-06 22:55 | 11.16882 | -85.28771 | 21895 ft | 445 kts | 320° |
| 2026-05-06 22:55 | 11.19144 | -85.30916 | 21897 ft | 445 kts | 320° |
| 2026-05-06 22:55 | 11.21412 | -85.33069 | 21896 ft | 445 kts | 320° |
| 2026-05-06 22:56 | 11.23672 | -85.35217 | 21895 ft | 445 kts | 320° |
| 2026-05-06 22:56 | 11.25932 | -85.37365 | 21896 ft | 444 kts | 320° |
| 2026-05-06 22:56 | 11.28198 | -85.39521 | 21895 ft | 444 kts | 320° |
| 2026-05-06 22:56 | 11.30456 | -85.41668 | 21890 ft | 444 kts | 320° |
| 2026-05-06 22:57 | 11.32712 | -85.43814 | 21881 ft | 444 kts | 320° |
| 2026-05-06 22:57 | 11.34974 | -85.45966 | 21885 ft | 444 kts | 320° |
| 2026-05-06 22:57 | 11.37229 | -85.48112 | 21891 ft | 445 kts | 320° |
| 2026-05-06 22:57 | 11.39436 | -85.50329 | 21879 ft | 448 kts | 313° |
| 2026-05-06 22:58 | 11.41257 | -85.52911 | 21893 ft | 445 kts | 306° |
| 2026-05-06 22:58 | 11.42889 | -85.55540 | 21848 ft | 431 kts | 304° |
| 2026-05-06 22:58 | 11.44447 | -85.58133 | 21483 ft | 425 kts | 304° |
| 2026-05-06 22:58 | 11.45987 | -85.60691 | 21045 ft | 422 kts | 304° |
| 2026-05-06 22:59 | 11.47522 | -85.63206 | 20602 ft | 418 kts | 304° |
| 2026-05-06 22:59 | 11.49068 | -85.65707 | 20150 ft | 415 kts | 305° |
| 2026-05-06 22:59 | 11.50612 | -85.68178 | 19677 ft | 412 kts | 305° |
| 2026-05-06 22:59 | 11.52138 | -85.70606 | 19219 ft | 410 kts | 305° |
| 2026-05-06 23:00 | 11.53682 | -85.73056 | 18740 ft | 409 kts | 305° |
| 2026-05-06 23:00 | 11.55218 | -85.75491 | 18274 ft | 407 kts | 305° |
| 2026-05-06 23:00 | 11.56752 | -85.77923 | 17750 ft | 405 kts | 305° |
| 2026-05-06 23:00 | 11.58272 | -85.80333 | 17269 ft | 402 kts | 305° |
| 2026-05-06 23:01 | 11.59780 | -85.82725 | 16801 ft | 399 kts | 305° |
| 2026-05-06 23:01 | 11.61276 | -85.85100 | 16337 ft | 396 kts | 305° |
| 2026-05-06 23:01 | 11.62765 | -85.87463 | 15885 ft | 393 kts | 305° |
| 2026-05-06 23:01 | 11.64234 | -85.89797 | 15436 ft | 391 kts | 305° |
| 2026-05-06 23:02 | 11.65702 | -85.92128 | 14978 ft | 388 kts | 305° |
| 2026-05-06 23:02 | 11.67157 | -85.94441 | 14524 ft | 386 kts | 304° |
| 2026-05-06 23:02 | 11.68588 | -85.96714 | 14072 ft | 385 kts | 304° |
| 2026-05-06 23:02 | 11.70030 | -85.99006 | 13611 ft | 383 kts | 304° |
| 2026-05-06 23:03 | 11.71419 | -86.01215 | 13137 ft | 381 kts | 304° |
| 2026-05-06 23:03 | 11.72843 | -86.03479 | 12672 ft | 378 kts | 304° |
| 2026-05-06 23:03 | 11.74253 | -86.05724 | 12225 ft | 374 kts | 304° |
| 2026-05-06 23:03 | 11.75652 | -86.07950 | 11788 ft | 371 kts | 304° |
| 2026-05-06 23:04 | 11.77044 | -86.10165 | 11358 ft | 369 kts | 304° |
| 2026-05-06 23:04 | 11.78422 | -86.12360 | 10919 ft | 366 kts | 304° |
| 2026-05-06 23:04 | 11.79789 | -86.14536 | 10588 ft | 361 kts | 304° |
| 2026-05-06 23:04 | 11.81117 | -86.16653 | 10410 ft | 351 kts | 304° |
| 2026-05-06 23:05 | 11.82417 | -86.18725 | 10264 ft | 341 kts | 305° |
| 2026-05-06 23:05 | 11.83676 | -86.20732 | 10120 ft | 331 kts | 305° |
| 2026-05-06 23:05 | 11.84899 | -86.22681 | 9977 ft | 322 kts | 304° |
| 2026-05-06 23:05 | 11.86094 | -86.24585 | 9833 ft | 314 kts | 304° |
| 2026-05-06 23:06 | 11.87248 | -86.26426 | 9813 ft | 300 kts | 304° |
| 2026-05-06 23:06 | 11.88369 | -86.28211 | 9299 ft | 307 kts | 305° |
| 2026-05-06 23:06 | 11.89510 | -86.30030 | 9057 ft | 302 kts | 305° |
| 2026-05-06 23:06 | 11.90659 | -86.31809 | 8763 ft | 299 kts | 309° |
| 2026-05-06 23:07 | 11.91998 | -86.33406 | 8464 ft | 292 kts | 315° |
| 2026-05-06 23:07 | 11.93375 | -86.34885 | 8182 ft | 284 kts | 317° |
| 2026-05-06 23:07 | 11.94723 | -86.36322 | 7945 ft | 276 kts | 316° |
| 2026-05-06 23:07 | 11.96026 | -86.37726 | 7658 ft | 269 kts | 316° |
| 2026-05-06 23:08 | 11.97295 | -86.39111 | 7382 ft | 265 kts | 315° |
| 2026-05-06 23:08 | 11.98554 | -86.40499 | 7121 ft | 266 kts | 315° |
| 2026-05-06 23:08 | 11.99811 | -86.41890 | 6849 ft | 267 kts | 315° |
| 2026-05-06 23:08 | 12.01070 | -86.43286 | 6579 ft | 267 kts | 316° |
| 2026-05-06 23:09 | 12.02329 | -86.44685 | 6295 ft | 268 kts | 315° |
| 2026-05-06 23:09 | 12.03722 | -86.45923 | 5989 ft | 263 kts | 336° |
| 2026-05-06 23:09 | 12.05432 | -86.46349 | 5712 ft | 247 kts | 2° |
| 2026-05-06 23:09 | 12.07079 | -86.46239 | 5489 ft | 236 kts | 10° |
| 2026-05-06 23:10 | 12.08672 | -86.46036 | 5278 ft | 226 kts | 12° |
| 2026-05-06 23:10 | 12.10203 | -86.45843 | 5025 ft | 218 kts | 11° |
| 2026-05-06 23:10 | 12.11678 | -86.45664 | 4782 ft | 207 kts | 10° |
| 2026-05-06 23:10 | 12.13054 | -86.45503 | 4578 ft | 191 kts | 11° |
| 2026-05-06 23:11 | 12.14324 | -86.45356 | 4367 ft | 176 kts | 11° |
| 2026-05-06 23:11 | 12.15487 | -86.45221 | 4189 ft | 160 kts | 11° |
| 2026-05-06 23:11 | 12.16534 | -86.44955 | 4069 ft | 154 kts | 39° |
| 2026-05-06 23:11 | 12.17084 | -86.44085 | 3948 ft | 150 kts | 78° |
| 2026-05-06 23:12 | 12.17032 | -86.43019 | 3839 ft | 152 kts | 97° |
| 2026-05-06 23:12 | 12.16921 | -86.41955 | 3683 ft | 147 kts | 96° |
| 2026-05-06 23:12 | 12.16818 | -86.40919 | 3553 ft | 147 kts | 97° |
| 2026-05-06 23:12 | 12.16716 | -86.39870 | 3429 ft | 149 kts | 96° |
| 2026-05-06 23:13 | 12.16603 | -86.38821 | 3293 ft | 147 kts | 96° |
| 2026-05-06 23:13 | 12.16494 | -86.37799 | 3185 ft | 145 kts | 96° |
| 2026-05-06 23:13 | 12.16388 | -86.36773 | 3066 ft | 147 kts | 97° |
| 2026-05-06 23:13 | 12.16272 | -86.35728 | 2994 ft | 147 kts | 97° |
| 2026-05-06 23:14 | 12.16155 | -86.34692 | 2963 ft | 146 kts | 96° |
| 2026-05-06 23:14 | 12.16040 | -86.33670 | 2909 ft | 143 kts | 97° |
| 2026-05-06 23:14 | 12.15926 | -86.32654 | 2879 ft | 142 kts | 97° |
| 2026-05-06 23:14 | 12.15820 | -86.31678 | 2778 ft | 135 kts | 96° |
| 2026-05-06 23:15 | 12.15709 | -86.30711 | 2624 ft | 140 kts | 97° |
| 2026-05-06 23:15 | 12.15597 | -86.29715 | 2444 ft | 144 kts | 97° |
| 2026-05-06 23:15 | 12.15482 | -86.28698 | 2245 ft | 143 kts | 97° |
| 2026-05-06 23:15 | 12.15372 | -86.27701 | 2069 ft | 141 kts | 99° |
| 2026-05-06 23:16 | 12.15260 | -86.26705 | 1881 ft | 141 kts | 98° |
| 2026-05-06 23:16 | 12.15150 | -86.25724 | 1713 ft | 140 kts | 97° |
| 2026-05-06 23:16 | 12.15026 | -86.24714 | 1516 ft | 146 kts | 98° |
| 2026-05-06 23:16 | 12.14916 | -86.23675 | 1322 ft | 147 kts | 95° |
| 2026-05-06 23:17 | 12.14814 | -86.22645 | 1112 ft | 146 kts | 98° |
| 2026-05-06 23:17 | 12.14689 | -86.21621 | 978 ft | 143 kts | 96° |
| 2026-05-06 23:17 | 12.14565 | -86.20626 | 812 ft | 141 kts | 101° |
| 2026-05-06 23:17 | 12.14458 | -86.19604 | 583 ft | 147 kts | 95° |
| 2026-05-06 23:18 | 12.14364 | -86.18566 | 404 ft | 145 kts | 102° |
| 2026-05-06 23:18 | 12.14238 | -86.17567 | 211 ft | 139 kts | 100° |
| 2026-05-06 23:18 | 12.14139 | -86.16709 | 195 ft | 101 kts | 95° |
| 2026-05-06 23:18 | 12.14081 | -86.16158 | 197 ft | 44 kts | 97° |
| 2026-05-06 23:19 | 12.14071 | -86.16083 | 197 ft | 0 kts | 97° |
| 2026-05-06 23:19 | 12.14071 | -86.16075 | 197 ft | 8 kts | 98° |
| 2026-05-06 23:20 | 12.14057 | -86.15945 | 199 ft | 27 kts | 95° |
| 2026-05-06 23:20 | 12.14064 | -86.15817 | 201 ft | 12 kts | 88° |
| 2026-05-06 23:20 | 12.14038 | -86.15812 | 202 ft | 6 kts | 275° |
| 2026-05-06 23:20 | 12.14056 | -86.15915 | 202 ft | 21 kts | 276° |
| 2026-05-06 23:21 | 12.14070 | -86.16078 | 197 ft | 16 kts | 282° |
| 2026-05-06 23:21 | 12.14095 | -86.16287 | 202 ft | 44 kts | 276° |
| 2026-05-06 23:21 | 12.14137 | -86.16544 | 203 ft | 26 kts | 288° |
| 2026-05-06 23:21 | 12.14259 | -86.16642 | 201 ft | 17 kts | 319° |
| 2026-05-06 23:22 | 12.14282 | -86.16759 | 195 ft | 17 kts | 278° |
| 2026-05-06 23:22 | 12.14299 | -86.16875 | 195 ft | 16 kts | 276° |
| 2026-05-06 23:22 | 12.14333 | -86.16955 | 202 ft | 1 kts | 307° |
| 2026-05-06 23:22 | 12.14347 | -86.16967 | 208 ft | 2 kts | 343° |
| 2026-05-06 23:23 | 12.14361 | -86.16966 | 195 ft | 2 kts | 7° |
| 2026-05-06 23:23 | 12.14366 | -86.16965 | 204 ft | 0 kts | 7° |